createdAt,value
2018-05-03T00:01:29.020Z,6.63
2018-05-03T00:04:31.474Z,4.80
2018-05-03T00:07:34.041Z,5.90
2018-05-03T00:10:36.596Z,5.20
2018-05-03T00:13:39.172Z,4.93
2018-05-03T00:16:41.627Z,6.47
2018-05-03T00:19:44.193Z,9.00
2018-05-03T00:22:46.671Z,6.13
2018-05-03T00:25:49.116Z,5.27
2018-05-03T00:28:51.630Z,5.50
2018-05-03T00:31:54.140Z,6.27
2018-05-03T00:34:56.667Z,5.80
2018-05-03T00:37:59.150Z,5.43
2018-05-03T00:41:01.641Z,6.03
2018-05-03T00:44:04.186Z,6.40
2018-05-03T00:47:06.672Z,5.37
2018-05-03T00:50:09.123Z,6.67
2018-05-03T00:53:11.669Z,6.50
2018-05-03T00:56:14.147Z,8.63
2018-05-03T00:59:16.670Z,7.50
2018-05-03T01:02:19.155Z,8.47
2018-05-03T01:05:21.717Z,9.57
2018-05-03T01:08:24.177Z,7.07
2018-05-03T01:11:26.641Z,7.40
2018-05-03T01:14:29.200Z,8.53
2018-05-03T01:17:31.737Z,7.97
2018-05-03T01:20:34.228Z,10.87
2018-05-03T01:23:36.733Z,8.17
2018-05-03T01:26:39.173Z,8.50
2018-05-03T01:29:41.643Z,11.00
2018-05-03T01:32:44.170Z,8.33
2018-05-03T01:35:58.420Z,8.23
2018-05-03T01:39:00.846Z,7.07
2018-05-03T01:42:03.351Z,9.33
2018-05-03T01:45:05.847Z,9.03
2018-05-03T01:48:08.293Z,10.90
2018-05-03T01:51:10.769Z,10.37
2018-05-03T01:54:13.250Z,9.00
2018-05-03T01:57:15.743Z,11.73
2018-05-03T02:00:18.182Z,9.57
2018-05-03T02:03:20.652Z,9.67
2018-05-03T02:06:23.111Z,8.47
2018-05-03T02:09:25.666Z,12.70
2018-05-03T02:12:28.130Z,9.10
2018-05-03T02:15:30.686Z,11.07
2018-05-03T02:18:33.153Z,9.67
2018-05-03T02:21:35.715Z,11.80
2018-05-03T02:24:38.212Z,9.00
2018-05-03T02:27:40.746Z,11.40
2018-05-03T02:30:43.213Z,15.07
2018-05-03T02:33:45.696Z,10.37
2018-05-03T02:36:48.211Z,9.33
2018-05-03T02:39:50.634Z,11.40
2018-05-03T02:42:53.131Z,13.53
2018-05-03T02:45:55.628Z,12.57
2018-05-03T02:48:58.163Z,11.53
2018-05-03T02:52:00.572Z,12.67
2018-05-03T02:55:03.088Z,9.80
2018-05-03T02:58:18.438Z,10.87
2018-05-03T03:01:38.386Z,10.60
2018-05-03T03:04:58.306Z,10.33
2018-05-03T03:12:28.884Z,11.50
2018-05-03T03:15:43.787Z,12.27
2018-05-03T03:19:12.919Z,14.80
2018-05-03T03:22:32.928Z,11.30
2018-05-03T03:25:59.684Z,11.57
2018-05-03T03:29:19.642Z,18.47
2018-05-03T03:32:33.848Z,13.47
2018-05-03T03:35:57.854Z,13.10
2018-05-03T03:39:12.104Z,12.23
2018-05-03T03:42:25.463Z,10.50
2018-05-03T03:45:28.006Z,13.50
2018-05-03T03:48:30.441Z,12.33
2018-05-03T03:51:32.969Z,15.57
2018-05-03T03:54:35.408Z,14.70
2018-05-03T03:57:37.858Z,16.33
2018-05-03T04:00:40.344Z,20.23
2018-05-03T04:03:42.928Z,14.57
2018-05-03T04:06:45.414Z,19.80
2018-05-03T04:09:47.892Z,17.63
2018-05-03T04:12:50.454Z,19.93
2018-05-03T04:15:52.949Z,20.93
2018-05-03T04:19:07.135Z,21.90
2018-05-03T04:22:21.380Z,20.83
2018-05-03T04:28:59.970Z,22.03
2018-05-03T04:32:02.543Z,21.13
2018-05-03T04:35:05.030Z,22.07
2018-05-03T04:38:07.503Z,19.90
2018-05-03T04:41:09.954Z,23.70
2018-05-03T04:44:12.538Z,22.47
2018-05-03T04:47:15.035Z,21.60
2018-05-03T04:50:17.539Z,22.60
2018-05-03T04:53:19.980Z,19.73
2018-05-03T04:56:22.523Z,21.97
2018-05-03T04:59:24.987Z,22.33
2018-05-03T05:02:27.450Z,22.60
2018-05-03T05:05:29.919Z,24.43
2018-05-03T05:08:32.345Z,22.03
2018-05-03T05:11:34.823Z,22.93
2018-05-03T05:14:37.285Z,22.40
2018-05-03T05:17:39.900Z,23.80
2018-05-03T05:20:42.341Z,29.60
2018-05-03T05:23:44.835Z,24.03
2018-05-03T05:26:47.286Z,22.00
2018-05-03T05:29:49.850Z,25.30
2018-05-03T05:32:52.319Z,23.97
2018-05-03T05:35:54.806Z,22.97
2018-05-03T05:38:57.376Z,23.40
2018-05-03T05:41:59.854Z,25.10
2018-05-03T05:45:02.382Z,23.07
2018-05-03T05:48:05.005Z,23.33
2018-05-03T05:51:07.573Z,22.90
2018-05-03T05:54:10.045Z,28.00
2018-05-03T05:57:12.574Z,18.03
2018-05-03T06:00:15.146Z,22.73
2018-05-03T06:03:17.594Z,21.13
2018-05-03T06:06:20.076Z,16.97
2018-05-03T06:09:22.621Z,15.90
2018-05-03T06:12:25.153Z,17.80
2018-05-03T06:15:27.586Z,19.00
2018-05-03T06:18:30.137Z,15.33
2018-05-03T06:21:32.607Z,16.33
2018-05-03T06:24:35.076Z,12.67
2018-05-03T06:27:37.619Z,12.03
2018-05-03T06:30:40.090Z,10.70
2018-05-03T06:33:42.566Z,13.60
2018-05-03T06:36:45.052Z,9.17
2018-05-03T06:39:47.474Z,15.90
2018-05-03T06:42:49.950Z,10.80
2018-05-03T06:45:52.490Z,9.03
2018-05-03T06:48:54.950Z,10.30
2018-05-03T06:51:57.456Z,7.60
2018-05-03T06:54:59.892Z,8.10
2018-05-03T06:58:02.445Z,6.93
2018-05-03T07:01:04.953Z,8.00
2018-05-03T07:04:07.562Z,6.03
2018-05-03T07:07:09.970Z,5.80
2018-05-03T07:10:12.482Z,6.43
2018-05-03T07:13:14.925Z,5.40
2018-05-03T07:16:17.497Z,10.40
2018-05-03T07:19:19.967Z,8.80
2018-05-03T07:22:22.445Z,8.17
2018-05-03T07:25:24.941Z,7.60
2018-05-03T07:28:27.569Z,8.97
2018-05-03T07:31:30.009Z,9.67
2018-05-03T07:34:32.477Z,9.10
2018-05-03T07:37:34.967Z,11.27
2018-05-03T07:40:37.496Z,6.20
2018-05-03T07:43:40.033Z,15.57
2018-05-03T07:46:42.566Z,12.30
2018-05-03T07:49:45.080Z,6.00
2018-05-03T07:52:47.528Z,7.57
2018-05-03T07:55:50.000Z,14.40
2018-05-03T07:58:52.568Z,7.40
2018-05-03T08:01:55.048Z,7.80
2018-05-03T08:04:57.592Z,6.40
2018-05-03T08:08:00.068Z,6.83
2018-05-03T08:11:02.626Z,7.00
2018-05-03T08:14:05.176Z,7.20
2018-05-03T08:17:07.727Z,6.40
2018-05-03T08:20:10.147Z,9.83
2018-05-03T08:23:12.635Z,8.33
2018-05-03T08:26:15.216Z,6.40
2018-05-03T08:29:17.649Z,7.57
2018-05-03T08:32:20.127Z,4.50
2018-05-03T08:35:22.561Z,6.50
2018-05-03T08:38:25.060Z,9.40
2018-05-03T08:41:28.454Z,7.53
2018-05-03T08:44:30.965Z,11.37
2018-05-03T08:47:33.453Z,7.70
2018-05-03T08:50:35.911Z,6.03
2018-05-03T08:53:38.386Z,4.53
2018-05-03T08:56:40.828Z,5.67
2018-05-03T08:59:43.307Z,8.23
2018-05-03T09:02:45.767Z,6.70
2018-05-03T09:05:48.237Z,5.73
2018-05-03T09:08:50.713Z,9.13
2018-05-03T09:11:53.187Z,6.03
2018-05-03T09:14:55.717Z,7.10
2018-05-03T09:17:58.236Z,6.13
2018-05-03T09:21:00.756Z,6.20
2018-05-03T09:24:03.202Z,8.77
2018-05-03T09:27:05.662Z,6.30
2018-05-03T09:30:08.127Z,6.77
2018-05-03T09:33:10.603Z,7.50
2018-05-03T09:36:13.176Z,7.17
2018-05-03T09:39:15.723Z,8.60
2018-05-03T09:42:18.269Z,5.97
2018-05-03T09:45:20.743Z,5.53
2018-05-03T09:48:23.212Z,5.90
2018-05-03T09:51:25.681Z,8.00
2018-05-03T09:54:28.167Z,9.03
2018-05-03T09:57:30.637Z,6.13
2018-05-03T10:00:33.149Z,8.20
2018-05-03T10:03:35.609Z,6.40
2018-05-03T10:06:38.183Z,8.10
2018-05-03T10:09:40.721Z,7.90
2018-05-03T10:12:43.182Z,9.47
2018-05-03T10:15:45.665Z,5.70
2018-05-03T10:18:48.143Z,10.60
2018-05-03T10:21:50.607Z,8.00
2018-05-03T10:24:53.129Z,8.33
2018-05-03T10:27:55.578Z,5.93
2018-05-03T10:30:58.059Z,8.70
2018-05-03T10:34:00.612Z,9.33
2018-05-03T10:37:03.058Z,7.27
2018-05-03T10:40:05.632Z,10.73
2018-05-03T10:43:08.101Z,8.60
2018-05-03T10:46:10.606Z,7.70
2018-05-03T10:49:13.113Z,6.40
2018-05-03T10:52:15.584Z,9.47
2018-05-03T10:55:18.059Z,5.93
2018-05-03T10:58:20.613Z,7.43
2018-05-03T11:01:23.083Z,7.07
2018-05-03T11:04:25.552Z,6.13
2018-05-03T11:07:28.014Z,6.90
2018-05-03T11:10:30.508Z,10.23
2018-05-03T11:13:33.000Z,6.80
2018-05-03T11:16:35.504Z,6.20
2018-05-03T11:19:38.117Z,5.60
2018-05-03T11:22:40.658Z,9.37
2018-05-03T11:25:43.156Z,5.90
2018-05-03T11:28:45.612Z,5.67
2018-05-03T11:31:48.187Z,6.60
2018-05-03T11:34:50.639Z,7.10
2018-05-03T11:37:53.102Z,7.43
2018-05-03T11:40:55.658Z,5.73
2018-05-03T11:43:58.122Z,6.03
2018-05-03T11:47:00.618Z,7.10
2018-05-03T11:50:03.117Z,6.70
2018-05-03T11:53:05.587Z,6.57
2018-05-03T11:56:08.064Z,4.80
2018-05-03T11:59:10.626Z,9.50
2018-05-03T12:02:13.069Z,6.77
2018-05-03T12:05:15.500Z,6.37
2018-05-03T12:08:18.014Z,4.70
2018-05-03T12:11:20.563Z,7.50
2018-05-03T12:14:23.137Z,6.20
2018-05-03T12:17:26.229Z,8.60
2018-05-03T12:20:28.784Z,5.50
2018-05-03T12:23:31.310Z,6.40
2018-05-03T12:26:33.784Z,6.70
2018-05-03T12:29:36.288Z,7.60
2018-05-03T12:32:38.747Z,4.97
2018-05-03T12:35:41.293Z,3.83
2018-05-03T12:38:43.792Z,7.33
2018-05-03T12:41:46.295Z,11.23
2018-05-03T12:44:49.983Z,5.40
2018-05-03T12:47:52.452Z,8.33
2018-05-03T12:50:54.922Z,5.23
2018-05-03T12:53:57.418Z,6.80
2018-05-03T12:56:59.859Z,7.17
2018-05-03T13:00:02.359Z,8.20
2018-05-03T13:03:04.855Z,6.47
2018-05-03T13:06:07.403Z,11.23
2018-05-03T13:09:09.886Z,7.37
2018-05-03T13:12:12.344Z,8.93
2018-05-03T13:15:14.849Z,6.97
2018-05-03T13:18:17.348Z,5.17
2018-05-03T13:21:19.802Z,9.13
2018-05-03T13:24:22.309Z,6.90
2018-05-03T13:27:24.747Z,6.47
2018-05-03T13:30:27.283Z,5.80
2018-05-03T13:33:29.748Z,6.10
2018-05-03T13:36:32.243Z,7.47
2018-05-03T13:39:34.719Z,5.90
2018-05-03T13:42:37.188Z,5.80
2018-05-03T13:45:39.654Z,7.33
2018-05-03T13:48:42.105Z,5.53
2018-05-03T13:51:44.609Z,6.33
2018-05-03T13:54:47.088Z,9.57
2018-05-03T13:57:49.578Z,5.20
2018-05-03T14:00:52.227Z,9.20
2018-05-03T14:03:54.684Z,5.60
2018-05-03T14:06:57.145Z,6.10
2018-05-03T14:09:59.666Z,7.97
2018-05-03T14:13:02.162Z,5.10
2018-05-03T14:16:04.634Z,5.60
2018-05-03T14:19:07.211Z,6.87
2018-05-03T14:22:09.783Z,7.23
2018-05-03T14:25:12.286Z,5.73
2018-05-03T14:28:14.784Z,7.30
2018-05-03T14:31:17.346Z,9.00
2018-05-03T14:34:19.814Z,7.70
2018-05-03T14:37:22.361Z,4.83
2018-05-03T14:40:24.802Z,5.17
2018-05-03T14:43:27.285Z,6.97
2018-05-03T14:46:29.851Z,5.80
2018-05-03T14:49:33.191Z,8.60
2018-05-03T14:52:35.691Z,8.53
2018-05-03T14:55:38.136Z,5.03
2018-05-03T14:58:40.619Z,5.53
2018-05-03T15:01:43.071Z,8.03
2018-05-03T15:04:45.562Z,5.40
2018-05-03T15:07:48.053Z,6.00
2018-05-03T15:10:50.572Z,8.90
2018-05-03T15:13:53.026Z,6.93
2018-05-03T15:16:55.545Z,7.30
2018-05-03T15:19:58.025Z,4.40
2018-05-03T15:23:00.520Z,4.80
2018-05-03T15:26:03.100Z,6.53
2018-05-03T15:29:05.562Z,7.37
2018-05-03T15:32:08.083Z,11.40
2018-05-03T15:35:10.559Z,9.30
2018-05-03T15:38:13.055Z,12.13
2018-05-03T15:41:15.500Z,6.30
2018-05-03T15:44:18.144Z,8.83
2018-05-03T15:47:20.657Z,4.77
2018-05-03T15:50:23.148Z,7.97
2018-05-03T15:53:25.609Z,9.23
2018-05-03T15:56:28.158Z,9.27
2018-05-03T15:59:30.680Z,6.97
2018-05-03T16:02:33.195Z,8.60
2018-05-03T16:05:35.775Z,5.47
2018-05-03T16:08:38.253Z,7.33
2018-05-03T16:11:40.721Z,5.87
2018-05-03T16:14:43.180Z,6.40
2018-05-03T16:17:45.702Z,6.87
2018-05-03T16:20:48.146Z,8.70
2018-05-03T16:23:50.692Z,9.03
2018-05-03T16:26:53.178Z,7.63
2018-05-03T16:29:55.717Z,7.13
2018-05-03T16:32:58.210Z,16.73
2018-05-03T16:36:00.700Z,6.57
2018-05-03T16:39:03.192Z,9.47
2018-05-03T16:42:05.670Z,6.63
2018-05-03T16:45:08.126Z,7.93
2018-05-03T16:48:10.648Z,7.07
2018-05-03T16:51:13.148Z,5.97
2018-05-03T16:54:15.671Z,8.43
2018-05-03T16:57:18.175Z,7.07
2018-05-03T17:00:20.735Z,8.03
2018-05-03T17:03:23.217Z,6.77
2018-05-03T17:06:25.722Z,6.43
2018-05-03T17:09:28.254Z,7.53
2018-05-03T17:15:39.416Z,15.00
2018-05-03T17:18:41.892Z,9.33
2018-05-03T17:21:44.464Z,7.57
2018-05-03T17:24:47.008Z,7.33
2018-05-03T17:27:49.599Z,7.17
2018-05-03T17:30:52.001Z,10.30
2018-05-03T17:33:54.553Z,12.47
2018-05-03T17:36:57.146Z,11.50
2018-05-03T17:39:59.653Z,10.23
2018-05-03T17:43:02.135Z,11.87
2018-05-03T17:46:04.642Z,9.70
2018-05-03T17:49:07.211Z,8.53
2018-05-03T17:52:09.783Z,13.90
2018-05-03T17:55:12.333Z,9.10
2018-05-03T17:58:14.866Z,6.93
2018-05-03T18:01:17.330Z,5.13
2018-05-03T18:04:19.824Z,9.43
2018-05-03T18:07:22.307Z,4.30
2018-05-03T18:10:24.771Z,6.80
2018-05-03T18:13:27.267Z,5.93
2018-05-03T18:16:29.989Z,4.97
2018-05-03T18:19:32.525Z,6.23
2018-05-03T18:22:35.090Z,14.10
2018-05-03T18:25:37.607Z,5.63
2018-05-03T18:28:40.113Z,6.97
2018-05-03T18:31:42.597Z,4.43
2018-05-03T18:34:45.089Z,6.93
2018-05-03T18:37:47.649Z,7.80
2018-05-03T18:40:50.154Z,5.83
2018-05-03T18:43:52.732Z,13.00
2018-05-03T18:46:55.177Z,9.10
2018-05-03T18:49:57.758Z,8.70
2018-05-03T18:53:00.252Z,8.57
2018-05-03T18:56:02.734Z,18.70
2018-05-03T18:59:05.272Z,8.83
2018-05-03T19:02:07.742Z,10.47
2018-05-03T19:05:10.257Z,14.07
2018-05-03T19:08:12.718Z,8.17
2018-05-03T19:11:15.214Z,10.83
2018-05-03T19:14:17.744Z,11.97
2018-05-03T19:17:20.407Z,10.53
2018-05-03T19:20:23.003Z,9.43
2018-05-03T19:23:25.544Z,8.40
2018-05-03T19:26:28.099Z,10.57
2018-05-03T19:29:30.610Z,11.77
2018-05-03T19:32:33.089Z,11.47
2018-05-03T19:35:35.643Z,9.73
2018-05-03T19:38:38.224Z,8.13
2018-05-03T19:41:40.804Z,11.63
2018-05-03T19:44:43.323Z,8.93
2018-05-03T19:47:45.903Z,8.90
2018-05-03T19:50:48.376Z,7.83
2018-05-03T19:53:50.903Z,11.87
2018-05-03T19:56:53.500Z,10.73
2018-05-03T19:59:56.047Z,11.20
2018-05-03T20:02:58.525Z,12.73
2018-05-03T20:06:01.046Z,12.47
2018-05-03T20:09:03.555Z,13.13
2018-05-03T20:12:06.123Z,14.03
2018-05-03T20:15:08.674Z,16.63
2018-05-03T20:18:11.151Z,19.67
2018-05-03T20:21:13.684Z,10.80
2018-05-03T20:24:16.276Z,10.53
2018-05-03T20:27:18.778Z,10.87
2018-05-03T20:30:21.279Z,11.43
2018-05-03T20:33:23.798Z,10.93
2018-05-03T20:36:26.319Z,12.50
2018-05-03T20:39:28.840Z,12.90
2018-05-03T20:42:31.300Z,16.07
2018-05-03T20:45:33.834Z,11.60
2018-05-03T20:48:36.372Z,11.10
2018-05-03T20:51:38.875Z,12.53
2018-05-03T20:54:41.381Z,21.13
2018-05-03T20:57:43.984Z,17.50
2018-05-03T21:00:46.453Z,14.83
2018-05-03T21:03:48.939Z,11.40
2018-05-03T21:06:51.400Z,13.30
2018-05-03T21:09:53.904Z,10.03
2018-05-03T21:12:56.377Z,17.03
2018-05-03T21:15:58.873Z,13.30
2018-05-03T21:19:01.473Z,13.03
2018-05-03T21:22:04.043Z,15.30
2018-05-03T21:25:06.490Z,16.37
2018-05-03T21:28:08.966Z,14.87
2018-05-03T21:31:11.439Z,12.13
2018-05-03T21:34:13.908Z,13.20
2018-05-03T21:37:16.428Z,11.30
2018-05-03T21:40:18.901Z,16.03
2018-05-03T21:43:21.381Z,24.20
2018-05-03T21:46:23.939Z,14.77
2018-05-03T21:49:26.374Z,15.40
2018-05-03T21:52:29.018Z,21.33
2018-05-03T21:55:31.379Z,18.67
2018-05-03T21:58:33.855Z,16.77
2018-05-03T22:01:36.349Z,11.97
2018-05-03T22:04:38.869Z,16.87
2018-05-03T22:07:41.326Z,9.20
2018-05-03T22:10:43.826Z,12.17
2018-05-03T22:13:46.369Z,16.43
2018-05-03T22:16:48.853Z,13.93
2018-05-03T22:19:51.344Z,12.70
2018-05-03T22:22:53.817Z,16.67
2018-05-03T22:25:56.313Z,17.63
2018-05-03T22:28:58.774Z,14.27
2018-05-03T22:32:01.225Z,14.73
2018-05-03T22:35:03.706Z,12.00
2018-05-03T22:38:06.179Z,10.17
2018-05-03T22:41:08.656Z,12.13
2018-05-03T22:44:11.105Z,12.03
2018-05-03T22:47:13.579Z,13.53
2018-05-03T22:50:16.095Z,10.80
2018-05-03T22:53:18.599Z,13.67
2018-05-03T22:56:21.047Z,19.23
2018-05-03T22:59:23.551Z,12.23
2018-05-03T23:02:26.091Z,13.70
2018-05-03T23:05:28.521Z,12.07
2018-05-03T23:08:31.002Z,13.30
2018-05-03T23:11:33.564Z,12.63
2018-05-03T23:14:36.031Z,9.83
2018-05-03T23:17:38.502Z,13.40
2018-05-03T23:20:40.976Z,11.77
2018-05-03T23:23:43.489Z,12.13
2018-05-03T23:26:45.973Z,12.40
2018-05-03T23:29:48.501Z,11.10
2018-05-03T23:32:51.082Z,8.30
2018-05-03T23:35:53.580Z,24.80
2018-05-03T23:38:56.145Z,10.07
2018-05-03T23:41:58.576Z,9.10
2018-05-03T23:45:01.135Z,11.60
2018-05-03T23:48:03.601Z,11.20
2018-05-03T23:51:06.076Z,8.47
2018-05-03T23:54:08.601Z,13.60
2018-05-03T23:57:11.066Z,10.40
